createdAt,value
2022-08-17T00:00:10.249Z,7.20
2022-08-17T00:03:22.846Z,7.20
2022-08-17T00:05:57.349Z,7.50
2022-08-17T00:08:27.911Z,7.00
2022-08-17T00:10:55.989Z,7.10
2022-08-17T00:13:27.814Z,7.40
2022-08-17T00:16:10.055Z,7.30
2022-08-17T00:19:01.432Z,6.60
2022-08-17T00:21:25.185Z,7.40
2022-08-17T00:23:53.738Z,7.20
2022-08-17T00:26:45.239Z,7.30
2022-08-17T00:29:10.742Z,7.40
2022-08-17T00:31:47.327Z,7.30
2022-08-17T00:34:14.889Z,6.80
2022-08-17T00:36:42.249Z,7.20
2022-08-17T00:39:09.610Z,7.90
2022-08-17T00:41:37.717Z,7.70
2022-08-17T00:44:10.249Z,7.00
2022-08-17T00:46:41.343Z,7.90
2022-08-17T00:49:10.067Z,7.50
2022-08-17T00:51:53.110Z,8.20
2022-08-17T00:54:41.830Z,8.00
2022-08-17T00:57:15.868Z,7.50
2022-08-17T01:00:02.691Z,7.20
2022-08-17T01:02:41.183Z,7.60
2022-08-17T01:05:22.670Z,7.40
2022-08-17T01:07:51.218Z,7.60
2022-08-17T01:10:59.223Z,7.70
2022-08-17T01:13:11.652Z,7.60
2022-08-17T01:15:42.209Z,7.70
2022-08-17T01:18:14.970Z,8.10
2022-08-17T01:20:48.638Z,8.50
2022-08-17T01:23:20.928Z,8.00
2022-08-17T01:25:57.388Z,8.50
2022-08-17T01:28:33.508Z,7.60
2022-08-17T01:31:15.261Z,7.90
2022-08-17T01:33:42.628Z,8.80
2022-08-17T01:36:10.785Z,8.30
2022-08-17T01:38:39.291Z,8.30
2022-08-17T01:41:12.095Z,9.20
2022-08-17T01:43:46.691Z,9.90
2022-08-17T01:46:22.668Z,10.20
2022-08-17T01:48:51.579Z,11.20
2022-08-17T01:51:20.310Z,10.10
2022-08-17T01:53:53.810Z,9.60
2022-08-17T01:56:23.583Z,10.50
2022-08-17T01:58:51.309Z,10.10
2022-08-17T02:01:21.462Z,10.60
2022-08-17T02:03:53.350Z,10.40
2022-08-17T02:06:45.034Z,10.20
2022-08-17T02:09:23.219Z,11.40
2022-08-17T02:11:52.828Z,10.70
2022-08-17T02:14:22.501Z,10.90
2022-08-17T02:16:50.090Z,10.40
2022-08-17T02:19:18.684Z,11.50
2022-08-17T02:21:49.929Z,10.40
2022-08-17T02:25:00.858Z,10.20
2022-08-17T02:27:10.218Z,9.20
2022-08-17T02:29:37.806Z,9.70
2022-08-17T02:32:05.861Z,9.40
2022-08-17T02:34:33.120Z,9.80
2022-08-17T02:37:00.348Z,9.90
2022-08-17T02:39:27.764Z,10.20
2022-08-17T02:42:02.257Z,10.40
2022-08-17T02:44:39.075Z,10.00
2022-08-17T02:47:09.249Z,10.20
2022-08-17T02:49:37.497Z,10.10
2022-08-17T02:52:07.015Z,9.70
2022-08-17T02:54:40.183Z,9.50
2022-08-17T02:57:10.252Z,9.70
2022-08-17T02:59:39.429Z,10.00
2022-08-17T03:02:08.522Z,9.40
2022-08-17T03:04:36.477Z,9.30
2022-08-17T03:07:05.232Z,10.00
2022-08-17T03:09:32.729Z,9.90
2022-08-17T03:12:13.156Z,9.40
2022-08-17T03:14:41.912Z,9.60
2022-08-17T03:17:10.961Z,9.50
2022-08-17T03:19:43.355Z,9.30
2022-08-17T03:22:36.085Z,9.40
2022-08-17T03:24:59.043Z,9.60
2022-08-17T03:27:26.913Z,9.20
2022-08-17T03:29:54.989Z,8.90
2022-08-17T03:32:22.325Z,9.30
2022-08-17T03:34:49.481Z,8.80
2022-08-17T03:37:16.935Z,8.70
2022-08-17T03:39:44.107Z,8.30
2022-08-17T03:42:31.485Z,8.30
2022-08-17T03:45:01.150Z,8.80
2022-08-17T03:47:47.727Z,9.90
2022-08-17T03:50:35.169Z,8.80
2022-08-17T03:53:25.763Z,10.00
2022-08-17T03:56:11.949Z,9.10
2022-08-17T03:58:39.309Z,9.10
2022-08-17T04:01:07.421Z,9.00
2022-08-17T04:03:34.919Z,8.90
2022-08-17T04:06:02.670Z,9.20
2022-08-17T04:08:30.988Z,9.10
2022-08-17T04:11:00.488Z,8.80
2022-08-17T04:13:28.048Z,9.20
2022-08-17T04:15:55.408Z,9.30
2022-08-17T04:18:22.868Z,9.30
2022-08-17T04:20:50.303Z,8.90
2022-08-17T04:23:19.297Z,8.70
2022-08-17T04:25:49.621Z,8.80
2022-08-17T04:28:18.082Z,9.60
2022-08-17T04:30:47.409Z,8.30
2022-08-17T04:33:21.049Z,7.90
2022-08-17T04:35:50.395Z,8.30
2022-08-17T04:38:21.248Z,8.80
2022-08-17T04:41:07.652Z,8.80
2022-08-17T04:43:36.850Z,8.70
2022-08-17T04:46:10.643Z,8.10
2022-08-17T04:48:41.718Z,8.30
2022-08-17T04:51:28.831Z,8.90
2022-08-17T04:54:02.454Z,9.50
2022-08-17T04:56:31.309Z,8.70
2022-08-17T04:59:01.763Z,8.50
2022-08-17T05:01:31.573Z,8.50
2022-08-17T05:04:33.099Z,8.50
2022-08-17T05:06:51.728Z,8.00
2022-08-17T05:09:19.310Z,8.40
2022-08-17T05:11:47.526Z,8.30
2022-08-17T05:14:15.350Z,8.90
2022-08-17T05:16:42.709Z,8.20
2022-08-17T05:19:10.252Z,8.70
2022-08-17T05:21:38.745Z,8.40
2022-08-17T05:24:38.671Z,7.80
2022-08-17T05:26:54.158Z,8.50
2022-08-17T05:29:22.729Z,9.00
2022-08-17T05:32:38.059Z,7.60
2022-08-17T05:35:01.161Z,8.60
2022-08-17T05:37:28.509Z,9.10
2022-08-17T05:39:56.080Z,9.20
2022-08-17T05:42:24.433Z,9.40
2022-08-17T05:44:52.929Z,9.10
2022-08-17T05:47:21.730Z,8.60
2022-08-17T05:49:49.333Z,8.50
2022-08-17T05:52:41.930Z,8.90
2022-08-17T05:55:32.528Z,9.10
2022-08-17T05:58:41.021Z,9.30
2022-08-17T06:01:27.166Z,8.60
2022-08-17T06:04:35.339Z,8.40
2022-08-17T06:07:13.049Z,8.30
2022-08-17T06:09:54.930Z,6.50
2022-08-17T06:12:41.760Z,6.90
2022-08-17T06:15:38.082Z,6.60
2022-08-17T06:18:08.915Z,6.40
2022-08-17T06:20:48.661Z,6.60
2022-08-17T06:23:35.882Z,6.50
2022-08-17T06:26:09.277Z,6.50
2022-08-17T06:28:44.500Z,6.30
2022-08-17T06:31:20.351Z,6.10
2022-08-17T06:33:48.711Z,5.90
2022-08-17T06:36:50.129Z,6.60
2022-08-17T06:39:29.512Z,6.40
2022-08-17T06:42:55.018Z,7.30
2022-08-17T06:45:14.113Z,6.40
2022-08-17T06:47:56.051Z,6.30
2022-08-17T06:50:37.278Z,6.50
2022-08-17T06:53:18.510Z,6.40
2022-08-17T06:55:51.797Z,5.60
2022-08-17T06:58:22.598Z,5.90
2022-08-17T07:00:56.615Z,6.00
2022-08-17T07:03:28.780Z,6.30
2022-08-17T07:06:00.503Z,6.20
2022-08-17T07:09:17.036Z,5.90
2022-08-17T07:11:50.850Z,6.00
2022-08-17T07:14:52.196Z,6.40
2022-08-17T07:17:46.497Z,6.10
2022-08-17T07:20:15.464Z,6.20
2022-08-17T07:22:57.703Z,6.40
2022-08-17T07:25:30.895Z,5.50
2022-08-17T07:28:01.259Z,6.30
2022-08-17T07:30:45.557Z,5.70
2022-08-17T07:33:23.257Z,5.80
2022-08-17T07:35:51.217Z,6.80
2022-08-17T07:38:25.349Z,5.80
2022-08-17T07:41:03.359Z,6.30
2022-08-17T07:43:39.752Z,6.10
2022-08-17T07:46:37.997Z,6.60
2022-08-17T07:49:08.506Z,5.40
2022-08-17T07:51:46.310Z,5.70
2022-08-17T07:54:17.071Z,5.70
2022-08-17T07:56:50.570Z,5.90
2022-08-17T07:59:23.551Z,6.20
2022-08-17T08:01:58.289Z,6.10
2022-08-17T08:04:49.948Z,6.50
2022-08-17T08:07:20.748Z,6.70
2022-08-17T08:10:01.692Z,5.70
2022-08-17T08:12:42.424Z,6.40
2022-08-17T08:15:22.838Z,6.20
2022-08-17T08:17:56.407Z,5.80
2022-08-17T08:20:52.412Z,6.40
2022-08-17T08:23:46.005Z,6.40
2022-08-17T08:26:38.189Z,5.90
2022-08-17T08:29:28.960Z,6.20
2022-08-17T08:32:18.755Z,6.00
2022-08-17T08:35:02.920Z,6.00
2022-08-17T08:37:50.431Z,5.60
2022-08-17T08:40:43.706Z,5.70
2022-08-17T08:43:23.047Z,5.60
2022-08-17T08:46:13.293Z,5.60
2022-08-17T08:48:56.329Z,5.30
2022-08-17T08:51:56.417Z,5.30
2022-08-17T08:54:44.683Z,5.00
2022-08-17T08:57:33.795Z,5.50
2022-08-17T09:00:23.623Z,5.20
2022-08-17T09:03:06.711Z,5.30
2022-08-17T09:05:42.596Z,5.40
2022-08-17T09:08:24.846Z,5.20
2022-08-17T09:11:15.259Z,5.30
2022-08-17T09:13:54.128Z,5.10
2022-08-17T09:16:43.501Z,5.30
2022-08-17T09:19:30.884Z,4.90
2022-08-17T09:22:33.606Z,4.90
2022-08-17T09:25:10.802Z,5.10
2022-08-17T09:27:57.754Z,4.60
2022-08-17T09:30:36.619Z,5.00
2022-08-17T09:33:08.141Z,5.00
2022-08-17T09:35:44.778Z,5.80
2022-08-17T09:38:28.092Z,5.30
2022-08-17T09:41:49.142Z,5.20
2022-08-17T09:44:22.928Z,5.30
2022-08-17T09:47:11.396Z,5.00
2022-08-17T09:50:02.299Z,5.30
2022-08-17T09:52:31.166Z,5.70
2022-08-17T09:54:59.830Z,5.30
2022-08-17T09:57:32.937Z,5.40
2022-08-17T10:00:00.192Z,5.70
2022-08-17T10:02:41.193Z,5.50
2022-08-17T10:05:22.059Z,6.10
2022-08-17T10:08:08.982Z,5.10
2022-08-17T10:10:52.474Z,5.40
2022-08-17T10:13:45.952Z,5.50
2022-08-17T10:16:31.620Z,5.40
2022-08-17T10:19:30.265Z,5.60
2022-08-17T10:22:34.508Z,5.20
2022-08-17T10:25:27.915Z,5.30
2022-08-17T10:28:19.706Z,4.90
2022-08-17T10:31:05.254Z,5.80
2022-08-17T10:33:58.084Z,5.20
2022-08-17T10:36:40.813Z,4.90
2022-08-17T10:39:08.939Z,5.20
2022-08-17T10:41:47.975Z,5.30
2022-08-17T10:44:51.169Z,5.30
2022-08-17T10:47:19.816Z,5.80
2022-08-17T10:49:54.232Z,5.70
2022-08-17T10:52:26.839Z,5.50
2022-08-17T10:54:59.545Z,6.10
2022-08-17T10:57:32.956Z,5.20
2022-08-17T11:00:16.397Z,5.30
2022-08-17T11:02:55.009Z,5.60
2022-08-17T11:05:43.734Z,5.10
2022-08-17T11:08:34.224Z,5.30
2022-08-17T11:11:24.292Z,5.70
2022-08-17T11:14:14.822Z,5.90
2022-08-17T11:16:59.106Z,5.60
2022-08-17T11:19:54.472Z,5.00
2022-08-17T11:22:33.486Z,5.30
2022-08-17T11:25:21.555Z,5.00
2022-08-17T11:27:53.982Z,5.40
2022-08-17T11:31:00.321Z,5.00
2022-08-17T11:33:30.532Z,5.20
2022-08-17T11:36:23.553Z,4.60
2022-08-17T11:39:07.163Z,4.20
2022-08-17T11:42:01.290Z,4.60
2022-08-17T11:44:55.432Z,4.70
2022-08-17T11:48:25.917Z,4.80
2022-08-17T11:51:16.942Z,4.80
2022-08-17T11:53:45.244Z,4.30
2022-08-17T11:56:32.164Z,4.50
2022-08-17T11:59:01.305Z,4.80
2022-08-17T12:01:32.022Z,5.00
2022-08-17T12:04:20.109Z,4.50
2022-08-17T12:06:51.199Z,4.70
2022-08-17T12:09:20.553Z,5.40
2022-08-17T12:12:11.161Z,4.80
2022-08-17T12:15:09.051Z,4.90
2022-08-17T12:17:50.652Z,4.90
2022-08-17T12:20:28.217Z,5.00
2022-08-17T12:23:09.706Z,4.80
2022-08-17T12:25:57.149Z,5.30
2022-08-17T12:28:30.336Z,4.60
2022-08-17T12:31:07.424Z,4.90
2022-08-17T12:33:37.003Z,5.10
2022-08-17T12:36:07.901Z,5.20
2022-08-17T12:38:36.974Z,5.10
2022-08-17T12:41:26.661Z,4.70
2022-08-17T12:44:05.682Z,4.70
2022-08-17T12:46:45.629Z,4.50
2022-08-17T12:49:21.343Z,4.40
2022-08-17T12:51:49.329Z,5.00
2022-08-17T12:54:27.860Z,5.30
2022-08-17T12:56:56.043Z,5.10
2022-08-17T12:59:30.252Z,4.30
2022-08-17T13:01:58.185Z,4.60
2022-08-17T13:04:26.490Z,4.40
2022-08-17T13:06:59.790Z,4.70
2022-08-17T13:09:35.743Z,4.50
2022-08-17T13:12:07.670Z,4.30
2022-08-17T13:14:35.723Z,4.60
2022-08-17T13:17:09.849Z,4.60
2022-08-17T13:19:48.752Z,4.60
2022-08-17T13:22:15.927Z,4.90
2022-08-17T13:24:57.489Z,4.60
2022-08-17T13:27:26.970Z,4.40
2022-08-17T13:29:58.449Z,5.00
2022-08-17T13:32:33.481Z,4.30
2022-08-17T13:35:15.598Z,5.00
2022-08-17T13:37:58.469Z,4.00
2022-08-17T13:40:32.585Z,5.90
2022-08-17T13:42:59.787Z,4.80
2022-08-17T13:45:36.637Z,4.60
2022-08-17T13:48:26.197Z,4.40
2022-08-17T13:50:59.970Z,4.90
2022-08-17T13:53:51.571Z,4.80
2022-08-17T13:56:38.785Z,4.70
2022-08-17T13:59:17.187Z,4.80
2022-08-17T14:02:05.274Z,4.20
2022-08-17T14:04:33.575Z,4.70
2022-08-17T14:07:13.247Z,4.70
2022-08-17T14:09:46.361Z,5.20
2022-08-17T14:12:17.586Z,5.20
2022-08-17T14:14:45.530Z,4.80
2022-08-17T14:17:13.105Z,5.40
2022-08-17T14:19:40.365Z,4.90
2022-08-17T14:22:09.367Z,4.90
2022-08-17T14:24:44.659Z,4.70
2022-08-17T14:27:12.512Z,4.80
2022-08-17T14:29:41.739Z,4.90
2022-08-17T14:32:22.509Z,4.70
2022-08-17T14:34:50.274Z,4.50
2022-08-17T14:37:18.931Z,4.90
2022-08-17T14:39:46.407Z,5.20
2022-08-17T14:42:15.505Z,4.90
2022-08-17T14:44:42.734Z,5.30
2022-08-17T14:47:15.379Z,5.20
2022-08-17T14:49:42.675Z,5.30
2022-08-17T14:52:11.378Z,5.40
2022-08-17T14:54:42.507Z,4.50
2022-08-17T14:57:25.859Z,4.70
2022-08-17T15:00:00.798Z,4.80
2022-08-17T15:02:30.387Z,4.60
2022-08-17T15:05:03.226Z,4.60
2022-08-17T15:07:31.279Z,5.10
2022-08-17T15:10:01.736Z,4.90
2022-08-17T15:12:33.720Z,4.60
2022-08-17T15:15:05.731Z,5.00
2022-08-17T15:17:44.862Z,4.40
2022-08-17T15:20:23.242Z,4.40
2022-08-17T15:22:51.645Z,4.90
2022-08-17T15:25:19.429Z,4.90
2022-08-17T15:27:47.815Z,4.50
2022-08-17T15:30:16.036Z,4.70
2022-08-17T15:32:51.060Z,4.10
2022-08-17T15:35:28.273Z,4.90
2022-08-17T15:38:11.716Z,4.60
2022-08-17T15:40:47.960Z,4.40
2022-08-17T15:43:27.350Z,4.00
2022-08-17T15:46:03.713Z,4.60
2022-08-17T15:48:44.910Z,4.60
2022-08-17T15:51:33.170Z,4.90
2022-08-17T15:54:04.414Z,4.70
2022-08-17T15:56:45.310Z,4.50
2022-08-17T15:59:13.047Z,4.50
2022-08-17T16:03:14.446Z,4.60
2022-08-17T16:04:30.881Z,4.50
2022-08-17T16:07:00.557Z,4.70
2022-08-17T16:09:28.390Z,4.60
2022-08-17T16:11:56.312Z,4.50
2022-08-17T16:14:32.367Z,4.70
2022-08-17T16:17:01.633Z,4.80
2022-08-17T16:19:29.177Z,5.00
2022-08-17T16:21:56.953Z,4.50
2022-08-17T16:24:25.064Z,4.30
2022-08-17T16:26:52.348Z,4.30
2022-08-17T16:29:19.563Z,4.40
2022-08-17T16:31:46.848Z,4.50
2022-08-17T16:34:17.093Z,4.70
2022-08-17T16:36:55.663Z,4.60
2022-08-17T16:39:26.020Z,4.20
2022-08-17T16:41:53.719Z,4.80
2022-08-17T16:44:22.123Z,4.30
2022-08-17T16:46:49.532Z,4.60
2022-08-17T16:49:36.293Z,5.10
2022-08-17T16:52:07.573Z,4.20
2022-08-17T16:54:36.055Z,5.20
2022-08-17T16:57:05.696Z,4.60
2022-08-17T16:59:40.701Z,4.40
2022-08-17T17:02:12.855Z,4.00
2022-08-17T17:05:20.990Z,4.60
2022-08-17T17:08:14.776Z,4.30
2022-08-17T17:10:56.077Z,4.60
2022-08-17T17:13:41.271Z,4.20
2022-08-17T17:16:45.674Z,4.60
2022-08-17T17:19:34.638Z,4.60
2022-08-17T17:22:08.009Z,4.40
2022-08-17T17:24:50.066Z,4.70
2022-08-17T17:27:37.843Z,4.60
2022-08-17T17:30:12.318Z,4.70
2022-08-17T17:32:47.074Z,5.30
2022-08-17T17:35:25.702Z,5.30
2022-08-17T17:37:53.764Z,4.80
2022-08-17T17:40:29.587Z,5.10
2022-08-17T17:43:14.164Z,4.80
2022-08-17T17:45:53.634Z,5.30
2022-08-17T17:48:21.389Z,4.80
2022-08-17T17:52:03.695Z,6.60
2022-08-17T17:54:46.117Z,5.60
2022-08-17T17:57:45.502Z,8.70
2022-08-17T18:00:13.159Z,11.90
2022-08-17T18:02:52.000Z,6.70
2022-08-17T18:06:00.569Z,6.80
2022-08-17T18:08:49.965Z,5.90
2022-08-17T18:11:53.486Z,5.20
2022-08-17T18:14:42.348Z,5.60
2022-08-17T18:17:09.897Z,5.00
2022-08-17T18:19:40.543Z,5.50
2022-08-17T18:22:14.026Z,5.20
2022-08-17T18:24:48.773Z,5.40
2022-08-17T18:27:30.155Z,25.70
2022-08-17T18:29:59.393Z,59.30
2022-08-17T18:32:33.585Z,43.60
2022-08-17T18:35:03.083Z,19.60
2022-08-17T18:37:43.248Z,11.00
2022-08-17T18:40:16.940Z,7.10
2022-08-17T18:42:46.961Z,5.70
2022-08-17T18:45:34.265Z,7.10
2022-08-17T18:48:02.352Z,5.70
2022-08-17T18:50:41.691Z,8.10
2022-08-17T18:53:21.013Z,8.40
2022-08-17T18:56:40.163Z,8.20
2022-08-17T18:59:17.545Z,7.40
2022-08-17T19:01:59.191Z,8.50
2022-08-17T19:04:30.486Z,7.30
2022-08-17T19:07:25.422Z,6.90
2022-08-17T19:10:11.595Z,6.80
2022-08-17T19:12:46.844Z,7.60
2022-08-17T19:15:16.873Z,8.60
2022-08-17T19:17:47.121Z,8.10
2022-08-17T19:20:31.527Z,6.40
2022-08-17T19:23:10.239Z,6.30
2022-08-17T19:25:50.702Z,6.60
2022-08-17T19:28:28.505Z,6.00
2022-08-17T19:30:58.577Z,6.00
2022-08-17T19:33:26.554Z,6.60
2022-08-17T19:36:27.441Z,6.50
2022-08-17T19:39:10.554Z,8.20
2022-08-17T19:41:48.673Z,7.60
2022-08-17T19:44:28.305Z,7.20
2022-08-17T19:47:53.883Z,7.20
2022-08-17T19:50:54.183Z,7.40
2022-08-17T19:54:04.517Z,8.90
2022-08-17T19:56:43.530Z,14.00
2022-08-17T19:59:49.917Z,9.70
2022-08-17T20:02:21.198Z,7.20
2022-08-17T20:04:50.609Z,7.30
2022-08-17T20:07:27.686Z,8.60
2022-08-17T20:10:32.066Z,8.90
2022-08-17T20:13:04.840Z,6.80
2022-08-17T20:15:36.413Z,6.70
2022-08-17T20:18:10.101Z,7.40
2022-08-17T20:21:00.237Z,6.60
2022-08-17T20:24:06.621Z,6.50
2022-08-17T20:26:55.366Z,6.40
2022-08-17T20:30:05.459Z,6.60
2022-08-17T20:32:38.258Z,7.10
2022-08-17T20:35:19.455Z,6.80
2022-08-17T20:38:05.327Z,7.20
2022-08-17T20:40:41.487Z,7.10
2022-08-17T20:43:30.375Z,7.10
2022-08-17T20:46:11.345Z,7.10
2022-08-17T20:48:43.088Z,7.40
2022-08-17T20:51:29.259Z,6.90
2022-08-17T20:54:01.345Z,7.10
2022-08-17T20:56:44.064Z,7.40
2022-08-17T20:59:27.897Z,6.80
2022-08-17T21:02:19.097Z,7.40
2022-08-17T21:04:54.963Z,6.90
2022-08-17T21:07:43.475Z,7.10
2022-08-17T21:10:26.544Z,7.70
2022-08-17T21:13:25.964Z,6.80
2022-08-17T21:16:01.404Z,7.20
2022-08-17T21:19:07.538Z,7.90
2022-08-17T21:21:58.764Z,7.50
2022-08-17T21:24:35.284Z,7.50
2022-08-17T21:27:24.205Z,7.90
2022-08-17T21:30:16.323Z,7.40
2022-08-17T21:32:45.957Z,7.60
2022-08-17T21:35:20.383Z,8.10
2022-08-17T21:37:49.327Z,7.70
2022-08-17T21:40:19.308Z,8.00
2022-08-17T21:42:51.787Z,7.60
2022-08-17T21:45:29.916Z,7.50
2022-08-17T21:48:16.134Z,7.80
2022-08-17T21:51:12.434Z,7.90
2022-08-17T21:53:49.343Z,8.40
2022-08-17T21:56:47.017Z,8.80
2022-08-17T21:59:36.911Z,8.10
2022-08-17T22:02:08.183Z,8.40
2022-08-17T22:04:40.922Z,8.70
2022-08-17T22:07:13.498Z,9.10
2022-08-17T22:09:48.204Z,9.10
2022-08-17T22:12:21.830Z,8.80
2022-08-17T22:15:01.463Z,8.90
2022-08-17T22:17:33.548Z,8.40
2022-08-17T22:20:02.031Z,8.70
2022-08-17T22:22:32.516Z,8.80
2022-08-17T22:25:13.967Z,8.50
2022-08-17T22:28:02.001Z,9.30
2022-08-17T22:30:44.503Z,9.00
2022-08-17T22:33:30.867Z,9.20
2022-08-17T22:36:20.321Z,9.50
2022-08-17T22:38:50.770Z,8.70
2022-08-17T22:41:52.842Z,9.10
2022-08-17T22:44:29.943Z,9.30
2022-08-17T22:46:59.546Z,9.20
2022-08-17T22:49:29.958Z,9.00
2022-08-17T22:52:02.803Z,9.30
2022-08-17T22:54:49.548Z,9.30
2022-08-17T22:57:36.279Z,8.50
2022-08-17T23:00:05.403Z,8.10
2022-08-17T23:02:34.762Z,9.00
2022-08-17T23:05:13.231Z,9.00
2022-08-17T23:07:42.489Z,8.90
2022-08-17T23:10:11.923Z,8.90
2022-08-17T23:12:40.170Z,9.10
2022-08-17T23:15:16.286Z,9.80
2022-08-17T23:17:45.038Z,10.00
2022-08-17T23:20:14.482Z,10.30
2022-08-17T23:22:51.939Z,10.30
2022-08-17T23:25:30.209Z,11.20
2022-08-17T23:27:59.001Z,11.00
2022-08-17T23:30:28.826Z,10.50
2022-08-17T23:32:57.120Z,11.40
2022-08-17T23:35:39.588Z,11.10
2022-08-17T23:38:13.211Z,10.20
2022-08-17T23:40:41.365Z,9.90
2022-08-17T23:45:59.967Z,9.60
2022-08-17T23:48:36.224Z,10.80
2022-08-17T23:51:15.939Z,10.40
2022-08-17T23:53:48.009Z,11.40
2022-08-17T23:56:15.671Z,11.00
2022-08-17T23:58:45.084Z,11.10
